Terminal Aerodrome Forecast
Issued by NWS Houston/Galveston, TX

Home | Current Version | Previous Version | Text Only | Print | Product List | Glossary On
Versions: 1 2 3 4 5 6 7 8 9 10 11 12 13 14 15 16 17 18 19 20 21 22 23 24 25 26
000
FTUS44 KHGX 021138
TAFGLS
TAF
KGLS 021138Z 0212/0312 19009KT P6SM VCSH SCT015
     FM021600 18011KT P6SM SCT020
     FM030100 16012KT P6SM OVC050
     FM030600 18008KT P6SM VCTS BKN040CB BKN250
      TEMPO 0307/0310 35020G30KT 3SM TSRA BKN020CB
     FM031000 36010KT P6SM BKN050 BKN100=

USA.gov is the U.S. government's official web portal to all federal, state and local government web resources and services.